createdAt,value
2023-02-27T00:00:26.249Z,75.34
2023-02-27T00:02:54.342Z,76.78
2023-02-27T00:05:23.161Z,77.93
2023-02-27T00:07:51.983Z,80.36
2023-02-27T00:10:20.356Z,80.73
2023-02-27T00:12:48.014Z,83.38
2023-02-27T00:15:18.889Z,84.33
2023-02-27T00:17:46.870Z,86.87
2023-02-27T00:20:16.407Z,89.12
2023-02-27T00:22:44.992Z,90.04
2023-02-27T00:25:13.589Z,91.54
2023-02-27T00:27:41.445Z,92.20
2023-02-27T00:30:12.660Z,94.51
2023-02-27T00:32:40.686Z,96.06
2023-02-27T00:35:10.884Z,97.27
2023-02-27T00:37:38.542Z,98.32
2023-02-27T00:40:07.197Z,99.30
2023-02-27T00:42:34.998Z,99.27
2023-02-27T00:45:04.485Z,100.00
2023-02-27T00:47:33.597Z,100.00
2023-02-27T00:50:01.669Z,100.00
2023-02-27T00:52:31.052Z,100.00
2023-02-27T00:55:00.019Z,100.00
2023-02-27T00:57:28.806Z,100.00
2023-02-27T00:59:56.830Z,100.00
2023-02-27T01:02:25.091Z,100.00
2023-02-27T01:04:53.913Z,100.00
2023-02-27T01:07:21.567Z,100.00
2023-02-27T01:09:49.118Z,100.00
2023-02-27T01:12:16.730Z,100.00
2023-02-27T01:14:45.220Z,100.00
2023-02-27T01:17:13.047Z,100.00
2023-02-27T01:19:40.707Z,100.00
2023-02-27T01:22:08.301Z,100.00
2023-02-27T01:24:35.919Z,100.00
2023-02-27T01:27:03.761Z,100.00
2023-02-27T01:29:32.218Z,100.00
2023-02-27T01:31:59.964Z,100.00
2023-02-27T01:34:27.721Z,100.00
2023-02-27T01:36:55.350Z,100.00
2023-02-27T01:39:22.875Z,100.00
2023-02-27T01:41:50.516Z,100.00
2023-02-27T01:44:18.171Z,100.00
2023-02-27T01:46:45.832Z,100.00
2023-02-27T01:49:30.107Z,100.00
2023-02-27T01:52:06.354Z,100.00
2023-02-27T01:54:37.390Z,100.00
2023-02-27T01:57:07.090Z,100.00
2023-02-27T01:59:36.272Z,100.00
2023-02-27T02:02:08.503Z,100.00
2023-02-27T02:04:38.754Z,100.00
2023-02-27T02:07:12.919Z,100.00
2023-02-27T02:09:44.959Z,100.00
2023-02-27T02:12:15.368Z,100.00
2023-02-27T02:14:44.752Z,100.00
2023-02-27T02:17:36.169Z,100.00
2023-02-27T02:20:48.998Z,100.00
2023-02-27T02:24:04.210Z,100.00
2023-02-27T02:26:51.511Z,100.00
2023-02-27T02:29:41.248Z,100.00
2023-02-27T02:32:45.690Z,100.00
2023-02-27T02:35:42.831Z,100.00
2023-02-27T02:38:28.143Z,100.00
2023-02-27T02:41:04.642Z,100.00
2023-02-27T02:44:12.958Z,100.00
2023-02-27T02:47:02.858Z,100.00
2023-02-27T02:49:44.264Z,100.00
2023-02-27T02:52:24.151Z,100.00
2023-02-27T02:55:10.672Z,100.00
2023-02-27T02:58:10.919Z,100.00
2023-02-27T03:01:04.397Z,100.00
2023-02-27T03:03:39.767Z,100.00
2023-02-27T03:06:17.749Z,100.00
2023-02-27T03:08:56.120Z,100.00
2023-02-27T03:11:28.308Z,100.00
2023-02-27T03:14:35.223Z,100.00
2023-02-27T03:17:17.124Z,100.00
2023-02-27T03:20:04.906Z,100.00
2023-02-27T03:22:37.601Z,100.00
2023-02-27T03:25:08.530Z,100.00
2023-02-27T03:27:45.728Z,100.00
2023-02-27T03:30:28.893Z,100.00
2023-02-27T03:33:26.012Z,100.00
2023-02-27T03:36:12.594Z,100.00
2023-02-27T03:39:01.881Z,100.00
2023-02-27T03:41:35.751Z,100.00
2023-02-27T03:44:52.403Z,100.00
2023-02-27T03:47:20.952Z,100.00
2023-02-27T03:49:51.578Z,100.00
2023-02-27T03:52:22.963Z,100.00
2023-02-27T03:55:11.796Z,100.00
2023-02-27T03:57:41.515Z,100.00
2023-02-27T04:00:13.163Z,100.00
2023-02-27T04:02:47.274Z,100.00
2023-02-27T04:05:19.164Z,100.00
2023-02-27T04:08:33.258Z,100.00
2023-02-27T04:11:32.812Z,100.00
2023-02-27T04:14:21.252Z,100.00
2023-02-27T04:16:53.555Z,100.00
2023-02-27T04:19:54.674Z,100.00
2023-02-27T04:22:36.033Z,100.00
2023-02-27T04:25:28.239Z,100.00
2023-02-27T04:28:17.687Z,100.00
2023-02-27T04:31:19.756Z,100.00
2023-02-27T04:34:09.071Z,100.00
2023-02-27T04:36:45.524Z,100.00
2023-02-27T04:39:25.148Z,100.00
2023-02-27T04:41:59.559Z,100.00
2023-02-27T04:44:30.891Z,100.00
2023-02-27T04:47:01.366Z,100.00
2023-02-27T04:49:33.799Z,100.00
2023-02-27T04:52:14.506Z,100.00
2023-02-27T04:55:00.278Z,100.00
2023-02-27T04:57:33.045Z,100.00
2023-02-27T05:00:06.478Z,100.00
2023-02-27T05:02:40.838Z,100.00
2023-02-27T05:05:16.845Z,100.00
2023-02-27T05:07:51.801Z,100.00
2023-02-27T05:10:36.991Z,100.00
2023-02-27T05:13:13.596Z,100.00
2023-02-27T05:15:48.009Z,100.00
2023-02-27T05:18:19.751Z,100.00
2023-02-27T05:20:56.210Z,100.00
2023-02-27T05:24:10.166Z,100.00
2023-02-27T05:27:11.659Z,100.00
2023-02-27T05:30:01.159Z,100.00
2023-02-27T05:32:43.246Z,100.00
2023-02-27T05:35:38.797Z,100.00
2023-02-27T05:38:22.382Z,100.00
2023-02-27T05:41:00.204Z,100.00
2023-02-27T05:43:50.984Z,100.00
2023-02-27T05:46:32.819Z,100.00
2023-02-27T05:49:11.067Z,98.96
2023-02-27T05:51:40.688Z,99.75
2023-02-27T05:54:16.477Z,100.00
2023-02-27T05:56:49.984Z,100.00
2023-02-27T05:59:34.785Z,100.00
2023-02-27T06:02:02.585Z,100.00
2023-02-27T06:04:30.181Z,100.00
2023-02-27T06:06:58.320Z,100.00
2023-02-27T06:09:25.871Z,100.00
2023-02-27T06:11:53.440Z,100.00
2023-02-27T06:14:20.857Z,99.33
2023-02-27T06:16:48.401Z,97.81
2023-02-27T06:19:15.993Z,94.68
2023-02-27T06:21:43.547Z,94.76
2023-02-27T06:24:11.173Z,96.75
2023-02-27T06:26:38.842Z,97.56
2023-02-27T06:29:06.375Z,95.72
2023-02-27T06:31:33.905Z,97.74
2023-02-27T06:34:01.464Z,97.87
2023-02-27T06:36:30.453Z,99.09
2023-02-27T06:38:58.517Z,97.12
2023-02-27T06:41:26.114Z,94.51
2023-02-27T06:43:53.637Z,89.89
2023-02-27T06:46:21.223Z,85.35
2023-02-27T06:48:48.801Z,83.85
2023-02-27T06:51:16.565Z,83.43
2023-02-27T06:53:44.069Z,80.95
2023-02-27T06:56:11.742Z,80.35
2023-02-27T06:58:39.445Z,80.41
2023-02-27T07:01:07.131Z,79.57
2023-02-27T07:03:34.692Z,78.18
2023-02-27T07:06:02.943Z,76.83
2023-02-27T07:08:30.752Z,75.90
2023-02-27T07:10:58.646Z,76.20
2023-02-27T07:13:26.161Z,74.75
2023-02-27T07:15:54.395Z,74.20
2023-02-27T07:18:22.058Z,72.21
2023-02-27T07:20:55.587Z,72.46
2023-02-27T07:23:23.905Z,74.10
2023-02-27T07:25:51.608Z,73.42
2023-02-27T07:28:19.605Z,72.06
2023-02-27T07:30:47.314Z,73.08
2023-02-27T07:33:14.908Z,73.87
2023-02-27T07:35:42.511Z,71.76
2023-02-27T07:38:10.032Z,73.08
2023-02-27T07:40:37.594Z,75.37
2023-02-27T07:43:05.148Z,74.03
2023-02-27T07:45:32.700Z,68.56
2023-02-27T07:48:00.214Z,71.63
2023-02-27T07:50:27.893Z,69.22
2023-02-27T07:52:55.632Z,68.49
2023-02-27T07:55:23.258Z,71.13
2023-02-27T07:57:50.865Z,71.09
2023-02-27T08:00:18.856Z,71.06
2023-02-27T08:02:46.582Z,70.40
2023-02-27T08:05:14.218Z,71.37
2023-02-27T08:07:41.746Z,68.83
2023-02-27T08:10:10.162Z,70.24
2023-02-27T08:12:37.650Z,68.57
2023-02-27T08:15:05.950Z,69.32
2023-02-27T08:17:33.452Z,70.03
2023-02-27T08:20:00.928Z,71.03
2023-02-27T08:22:28.828Z,70.38
2023-02-27T08:24:56.382Z,69.97
2023-02-27T08:27:24.311Z,67.94
2023-02-27T08:29:51.952Z,67.74
2023-02-27T08:32:19.735Z,69.16
2023-02-27T08:34:47.313Z,68.22
2023-02-27T08:37:14.770Z,70.33
2023-02-27T08:39:42.396Z,70.53
2023-02-27T08:42:10.266Z,73.93
2023-02-27T08:44:37.943Z,72.92
2023-02-27T08:47:05.606Z,69.31
2023-02-27T08:49:33.252Z,70.70
2023-02-27T08:52:01.493Z,68.53
2023-02-27T08:54:29.043Z,65.80
2023-02-27T08:56:56.620Z,68.31
2023-02-27T08:59:24.257Z,69.21
2023-02-27T09:01:51.804Z,69.33
2023-02-27T09:04:19.270Z,69.94
2023-02-27T09:06:47.075Z,70.47
2023-02-27T09:09:14.674Z,68.49
2023-02-27T09:11:42.241Z,70.83
2023-02-27T09:14:09.744Z,68.71
2023-02-27T09:16:37.339Z,70.07
2023-02-27T09:19:05.137Z,64.90
2023-02-27T09:21:32.709Z,64.57
2023-02-27T09:24:07.372Z,65.36
2023-02-27T09:26:46.504Z,64.43
2023-02-27T09:29:14.321Z,65.64
2023-02-27T09:31:42.407Z,63.31
2023-02-27T09:34:10.033Z,63.42
2023-02-27T09:36:37.598Z,63.74
2023-02-27T09:39:05.272Z,66.10
2023-02-27T09:42:15.921Z,66.53
2023-02-27T09:44:49.936Z,67.17
2023-02-27T09:47:37.727Z,67.87
2023-02-27T09:50:28.102Z,66.49
2023-02-27T09:52:55.808Z,70.69
2023-02-27T09:55:25.454Z,70.82
2023-02-27T09:58:16.489Z,65.61
2023-02-27T10:00:58.279Z,63.62
2023-02-27T10:03:31.699Z,65.74
2023-02-27T10:06:27.495Z,63.53
2023-02-27T10:09:22.923Z,67.35
2023-02-27T10:12:17.756Z,68.78
2023-02-27T10:14:50.909Z,66.19
2023-02-27T10:17:42.618Z,65.21
2023-02-27T10:20:32.761Z,61.63
2023-02-27T10:23:05.535Z,63.22
2023-02-27T10:25:39.572Z,65.53
2023-02-27T10:28:16.009Z,63.84
2023-02-27T10:30:48.763Z,65.38
2023-02-27T10:33:48.366Z,68.10
2023-02-27T10:36:32.555Z,66.99
2023-02-27T10:39:09.292Z,64.21
2023-02-27T10:41:40.009Z,65.92
2023-02-27T10:44:07.845Z,63.91
2023-02-27T10:46:40.271Z,64.56
2023-02-27T10:49:19.068Z,63.87
2023-02-27T10:52:04.803Z,64.76
2023-02-27T10:54:32.389Z,63.36
2023-02-27T10:57:05.670Z,66.03
2023-02-27T10:59:40.707Z,64.69
2023-02-27T11:02:17.300Z,62.68
2023-02-27T11:04:54.235Z,63.34
2023-02-27T11:07:39.286Z,63.36
2023-02-27T11:10:15.466Z,65.48
2023-02-27T11:12:58.119Z,63.09
2023-02-27T11:15:29.364Z,65.36
2023-02-27T11:18:19.844Z,64.90
2023-02-27T11:20:50.994Z,68.79
2023-02-27T11:23:24.310Z,69.56
2023-02-27T11:26:09.493Z,67.88
2023-02-27T11:28:37.022Z,67.29
2023-02-27T11:31:15.498Z,68.69
2023-02-27T11:33:54.936Z,65.08
2023-02-27T11:36:25.534Z,63.56
2023-02-27T11:38:55.137Z,64.56
2023-02-27T11:41:34.712Z,64.57
2023-02-27T11:44:05.841Z,64.33
2023-02-27T11:46:47.907Z,65.41
2023-02-27T11:49:54.393Z,65.72
2023-02-27T11:52:38.584Z,64.16
2023-02-27T11:55:10.765Z,64.41
2023-02-27T11:57:44.226Z,65.22
2023-02-27T12:00:18.312Z,65.10
2023-02-27T12:03:01.185Z,65.12
2023-02-27T12:05:33.480Z,67.70
2023-02-27T12:08:12.305Z,66.75
2023-02-27T12:11:11.492Z,64.83
2023-02-27T12:13:47.540Z,66.52
2023-02-27T12:16:33.302Z,69.53
2023-02-27T12:19:26.845Z,65.22
2023-02-27T12:22:14.087Z,68.84
2023-02-27T12:24:51.698Z,65.67
2023-02-27T12:27:26.753Z,67.55
2023-02-27T12:30:13.714Z,65.70
2023-02-27T12:32:54.881Z,65.17
2023-02-27T12:35:31.273Z,67.94
2023-02-27T12:37:59.321Z,71.65
2023-02-27T12:41:01.573Z,66.36
2023-02-27T12:43:53.278Z,65.72
2023-02-27T12:46:44.310Z,67.33
2023-02-27T12:49:15.161Z,65.79
2023-02-27T12:51:52.268Z,67.08
2023-02-27T12:54:46.585Z,67.32
2023-02-27T12:57:32.941Z,68.66
2023-02-27T13:00:15.453Z,66.40
2023-02-27T13:03:11.916Z,67.38
2023-02-27T13:05:53.353Z,67.83
2023-02-27T13:08:33.258Z,66.13
2023-02-27T13:11:25.751Z,69.23
2023-02-27T13:13:56.914Z,69.78
2023-02-27T13:16:46.922Z,67.32
2023-02-27T13:19:16.418Z,67.85
2023-02-27T13:21:43.979Z,69.66
2023-02-27T13:24:24.409Z,71.44
2023-02-27T13:27:19.754Z,72.19
2023-02-27T13:30:05.610Z,73.79
2023-02-27T13:32:45.407Z,74.52
2023-02-27T13:35:36.500Z,77.27
2023-02-27T13:38:25.073Z,78.20
2023-02-27T13:40:52.893Z,78.31
2023-02-27T13:43:53.610Z,74.39
2023-02-27T13:46:32.164Z,71.11
2023-02-27T13:49:29.343Z,69.79
2023-02-27T13:52:00.809Z,76.00
2023-02-27T13:54:41.113Z,71.39
2023-02-27T13:57:19.454Z,70.66
2023-02-27T14:00:24.132Z,71.98
2023-02-27T14:03:26.196Z,65.98
2023-02-27T14:05:58.725Z,70.34
2023-02-27T14:08:29.992Z,71.98
2023-02-27T14:11:03.155Z,70.95
2023-02-27T14:13:46.014Z,69.18
2023-02-27T14:16:39.484Z,66.75
2023-02-27T14:19:16.228Z,65.39
2023-02-27T14:22:14.430Z,70.49
2023-02-27T14:25:01.706Z,69.45
2023-02-27T14:27:38.939Z,67.00
2023-02-27T14:30:22.270Z,69.16
2023-02-27T14:32:57.659Z,67.70
2023-02-27T14:35:32.518Z,66.43
2023-02-27T14:38:08.434Z,69.42
2023-02-27T14:40:44.003Z,68.70
2023-02-27T14:43:45.408Z,65.35
2023-02-27T14:46:23.934Z,65.55
2023-02-27T14:49:04.100Z,65.98
2023-02-27T14:51:37.634Z,65.03
2023-02-27T14:54:10.369Z,65.41
2023-02-27T14:56:38.076Z,67.72
2023-02-27T14:59:27.201Z,67.64
2023-02-27T15:01:57.457Z,66.62
2023-02-27T15:04:28.096Z,65.02
2023-02-27T15:06:57.961Z,62.96
2023-02-27T15:09:40.900Z,64.11
2023-02-27T15:12:10.654Z,65.40
2023-02-27T15:14:40.228Z,66.56
2023-02-27T15:17:23.741Z,65.45
2023-02-27T15:19:52.910Z,60.85
2023-02-27T15:22:37.950Z,62.77
2023-02-27T15:25:08.405Z,63.45
2023-02-27T15:27:40.145Z,65.44
2023-02-27T15:30:08.687Z,65.91
2023-02-27T15:32:42.613Z,67.78
2023-02-27T15:35:28.446Z,64.58
2023-02-27T15:37:58.356Z,69.37
2023-02-27T15:40:29.549Z,75.33
2023-02-27T15:42:58.822Z,80.19
2023-02-27T15:45:36.546Z,81.68
2023-02-27T15:48:05.492Z,82.63
2023-02-27T15:50:43.388Z,81.20
2023-02-27T15:53:19.421Z,79.77
2023-02-27T15:56:06.501Z,80.26
2023-02-27T15:58:37.613Z,78.14
2023-02-27T16:01:14.210Z,76.31
2023-02-27T16:03:53.567Z,77.34
2023-02-27T16:06:30.501Z,74.65
2023-02-27T16:09:00.615Z,72.73
2023-02-27T16:11:34.520Z,75.04
2023-02-27T16:14:02.151Z,67.72
2023-02-27T16:16:36.575Z,72.89
2023-02-27T16:19:31.148Z,69.76
2023-02-27T16:22:17.907Z,68.33
2023-02-27T16:24:46.224Z,69.25
2023-02-27T16:27:25.138Z,66.68
2023-02-27T16:29:56.117Z,67.38
2023-02-27T16:32:27.736Z,68.63
2023-02-27T16:35:23.118Z,66.59
2023-02-27T16:37:53.848Z,66.05
2023-02-27T16:40:24.856Z,66.88
2023-02-27T16:42:53.381Z,68.84
2023-02-27T16:45:27.098Z,71.05
2023-02-27T16:47:57.711Z,73.02
2023-02-27T16:50:30.889Z,65.19
2023-02-27T16:52:58.398Z,64.70
2023-02-27T16:55:27.168Z,65.82
2023-02-27T16:57:57.604Z,66.07
2023-02-27T17:00:25.257Z,64.45
2023-02-27T17:02:52.964Z,63.16
2023-02-27T17:05:20.663Z,63.21
2023-02-27T17:07:49.059Z,64.00
2023-02-27T17:10:19.119Z,64.03
2023-02-27T17:12:48.202Z,62.23
2023-02-27T17:15:16.540Z,62.70
2023-02-27T17:17:44.452Z,60.31
2023-02-27T17:20:14.283Z,65.69
2023-02-27T17:22:44.898Z,64.28
2023-02-27T17:25:13.847Z,65.73
2023-02-27T17:27:44.054Z,70.83
2023-02-27T17:30:12.602Z,66.68
2023-02-27T17:32:40.260Z,68.27
2023-02-27T17:35:08.282Z,68.41
2023-02-27T17:37:35.840Z,68.61
2023-02-27T17:40:04.976Z,67.96
2023-02-27T17:42:33.018Z,66.77
2023-02-27T17:45:01.772Z,66.89
2023-02-27T17:47:31.285Z,70.54
2023-02-27T17:49:58.965Z,74.97
2023-02-27T17:52:27.727Z,79.56
2023-02-27T17:54:55.944Z,80.65
2023-02-27T17:57:23.579Z,81.66
2023-02-27T17:59:51.112Z,83.60
2023-02-27T18:02:18.773Z,86.56
2023-02-27T18:04:47.197Z,88.37
2023-02-27T18:07:14.889Z,80.68
2023-02-27T18:09:42.473Z,85.43
2023-02-27T18:12:10.027Z,81.36
2023-02-27T18:14:37.553Z,77.43
2023-02-27T18:17:07.196Z,81.58
2023-02-27T18:19:34.944Z,85.49
2023-02-27T18:22:02.484Z,86.84
2023-02-27T18:24:30.033Z,79.03
2023-02-27T18:26:58.132Z,78.12
2023-02-27T18:29:25.674Z,81.32
2023-02-27T18:31:55.157Z,83.16
2023-02-27T18:34:24.276Z,85.80
2023-02-27T18:36:57.212Z,80.89
2023-02-27T18:39:28.137Z,79.43
2023-02-27T18:41:55.779Z,79.30
2023-02-27T18:44:23.348Z,77.77
2023-02-27T18:46:51.197Z,81.28
2023-02-27T18:49:18.965Z,79.16
2023-02-27T18:51:46.842Z,80.42
2023-02-27T18:54:15.344Z,83.40
2023-02-27T18:56:42.949Z,85.72
2023-02-27T18:59:12.452Z,84.83
2023-02-27T19:01:40.009Z,80.30
2023-02-27T19:04:09.860Z,78.62
2023-02-27T19:06:41.215Z,80.63
2023-02-27T19:09:11.288Z,82.43
2023-02-27T19:11:39.231Z,83.17
2023-02-27T19:14:09.502Z,84.33
2023-02-27T19:16:37.178Z,81.79
2023-02-27T19:19:05.968Z,79.69
2023-02-27T19:21:34.250Z,78.50
2023-02-27T19:24:02.124Z,79.83
2023-02-27T19:26:30.340Z,80.58
2023-02-27T19:28:58.088Z,80.48
2023-02-27T19:31:25.981Z,82.30
2023-02-27T19:33:53.732Z,80.16
2023-02-27T19:36:23.172Z,77.74
2023-02-27T19:38:50.936Z,78.43
2023-02-27T19:41:19.659Z,76.78
2023-02-27T19:43:48.333Z,76.25
2023-02-27T19:46:24.349Z,76.46
2023-02-27T19:49:00.570Z,73.24
2023-02-27T19:51:28.900Z,74.31
2023-02-27T19:53:59.768Z,76.25
2023-02-27T19:56:31.784Z,72.15
2023-02-27T19:59:03.386Z,67.19
2023-02-27T20:01:34.563Z,66.05
2023-02-27T20:04:03.842Z,70.31
2023-02-27T20:06:34.086Z,74.26
2023-02-27T20:09:01.705Z,69.55
2023-02-27T20:11:31.230Z,71.44
2023-02-27T20:13:59.230Z,75.13
2023-02-27T20:16:30.382Z,77.22
2023-02-27T20:18:58.415Z,79.42
2023-02-27T20:21:29.039Z,75.62
2023-02-27T20:23:58.443Z,74.07
2023-02-27T20:26:34.013Z,72.46
2023-02-27T20:29:08.950Z,70.03
2023-02-27T20:31:38.240Z,68.67
2023-02-27T20:34:07.067Z,69.73
2023-02-27T20:36:35.950Z,64.49
2023-02-27T20:39:04.793Z,62.52
2023-02-27T20:48:05.511Z,69.02
2023-02-27T20:50:35.151Z,70.86
2023-02-27T20:57:25.476Z,70.52
2023-02-27T21:12:47.321Z,75.22
2023-02-27T21:17:57.356Z,79.06
2023-02-27T21:20:24.903Z,78.74
2023-02-27T21:22:56.056Z,79.38
2023-02-27T21:25:24.599Z,75.68
2023-02-27T21:27:52.278Z,72.81
2023-02-27T21:30:20.090Z,69.83
2023-02-27T21:32:47.651Z,73.70
2023-02-27T21:35:16.595Z,73.54
2023-02-27T21:37:47.025Z,74.46
2023-02-27T21:40:15.311Z,76.06
2023-02-27T21:42:46.028Z,73.79
2023-02-27T21:45:13.603Z,72.00
2023-02-27T21:47:41.146Z,69.69
2023-02-27T21:50:14.360Z,68.62
2023-02-27T21:52:42.631Z,66.14
2023-02-27T21:55:12.062Z,63.80
2023-02-27T21:57:41.160Z,66.78
2023-02-27T22:00:13.972Z,74.02
2023-02-27T22:02:41.730Z,68.69
2023-02-27T22:05:09.587Z,70.85
2023-02-27T22:07:37.820Z,72.79
2023-02-27T22:10:05.758Z,68.37
2023-02-27T22:12:33.277Z,68.04
2023-02-27T22:15:00.869Z,67.83
2023-02-27T22:17:28.592Z,68.50
2023-02-27T22:19:56.217Z,68.30
2023-02-27T22:22:24.527Z,68.89
2023-02-27T22:24:52.142Z,71.80
2023-02-27T22:27:19.804Z,71.40
2023-02-27T22:29:47.317Z,65.71
2023-02-27T22:32:15.122Z,64.43
2023-02-27T22:34:42.711Z,62.37
2023-02-27T22:37:10.293Z,62.76
2023-02-27T22:39:42.104Z,61.41
2023-02-27T22:43:26.563Z,60.30
2023-02-27T22:45:53.851Z,59.62
2023-02-27T22:49:02.622Z,62.30
2023-02-27T22:51:30.848Z,65.41
2023-02-27T22:54:19.210Z,64.80
2023-02-27T22:56:49.070Z,63.05
2023-02-27T23:00:06.675Z,58.96
2023-02-27T23:03:33.852Z,58.39
2023-02-27T23:06:01.417Z,60.97
2023-02-27T23:08:29.188Z,59.36
2023-02-27T23:10:56.706Z,58.13
2023-02-27T23:13:24.332Z,56.98
2023-02-27T23:15:52.009Z,57.15
2023-02-27T23:18:19.725Z,57.79
2023-02-27T23:20:47.385Z,56.67
2023-02-27T23:23:14.859Z,59.77
2023-02-27T23:25:42.892Z,62.73
2023-02-27T23:28:10.667Z,59.13
2023-02-27T23:30:38.701Z,56.84
2023-02-27T23:33:06.270Z,60.62
2023-02-27T23:35:33.794Z,62.09
2023-02-27T23:38:01.358Z,59.41
2023-02-27T23:40:29.031Z,63.43
2023-02-27T23:42:56.717Z,62.42
2023-02-27T23:45:24.263Z,62.86
2023-02-27T23:47:59.915Z,64.80
2023-02-27T23:50:32.950Z,66.35
2023-02-27T23:53:01.140Z,65.77
2023-02-27T23:55:30.597Z,63.92
2023-02-27T23:58:00.040Z,69.97
